Aviation Digital Data Service (ADDS)

Output produced by TAFs form (2320 UTC 15 July 2018)
found at http://www.aviationweather.gov/adds/tafs/
 
KDHN 152253Z 21003KT 10SM CLR 27/23 A3004 RMK AO2 SLP166 T02670233
KDHN 151933Z 1520/1618 24005KT P6SM -SHRA VCTS BKN040CB 
     FM160300 VRB03KT P6SM BKN250